createdAt,value
2022-10-17T00:00:48.389Z,70.78
2022-10-17T00:04:15.666Z,70.87
2022-10-17T00:07:42.473Z,70.88
2022-10-17T00:11:14.002Z,70.86
2022-10-17T00:14:41.227Z,70.94
2022-10-17T00:18:07.971Z,70.90
2022-10-17T00:21:35.140Z,70.96
2022-10-17T00:25:02.280Z,71.13
2022-10-17T00:28:29.365Z,71.28
2022-10-17T00:31:59.110Z,71.19
2022-10-17T00:35:27.096Z,71.17
2022-10-17T00:38:57.669Z,71.17
2022-10-17T00:42:26.103Z,71.23
2022-10-17T00:45:52.751Z,71.11
2022-10-17T00:49:20.638Z,71.15
2022-10-17T00:52:48.593Z,70.99
2022-10-17T00:56:17.087Z,71.00
2022-10-17T00:59:48.949Z,71.15
2022-10-17T01:03:16.759Z,71.31
2022-10-17T01:06:44.037Z,71.25
2022-10-17T01:10:12.521Z,71.35
2022-10-17T01:13:48.875Z,71.31
2022-10-17T01:17:27.047Z,71.37
2022-10-17T01:21:51.662Z,71.42
2022-10-17T01:25:30.924Z,71.32
2022-10-17T01:29:27.542Z,71.53
2022-10-17T01:33:00.269Z,71.42
2022-10-17T01:36:39.479Z,71.35
2022-10-17T01:40:13.525Z,71.35
2022-10-17T01:43:49.370Z,71.30
2022-10-17T01:47:21.502Z,71.36
2022-10-17T01:50:54.104Z,71.50
2022-10-17T01:54:26.607Z,71.63
2022-10-17T01:57:57.310Z,71.80
2022-10-17T02:01:26.148Z,71.65
2022-10-17T02:04:57.000Z,71.99
2022-10-17T02:08:44.608Z,71.90
2022-10-17T02:12:40.445Z,71.91
2022-10-17T02:16:22.828Z,72.05
2022-10-17T02:19:59.298Z,72.08
2022-10-17T02:23:41.879Z,72.04
2022-10-17T02:27:17.702Z,72.34
2022-10-17T02:30:52.745Z,72.13
2022-10-17T02:34:26.134Z,72.12
2022-10-17T02:37:55.336Z,72.04
2022-10-17T02:41:26.137Z,72.10
2022-10-17T02:44:54.826Z,72.02
2022-10-17T02:48:28.751Z,72.04
2022-10-17T02:52:03.962Z,72.07
2022-10-17T02:55:35.634Z,72.28
2022-10-17T02:59:06.806Z,72.22
2022-10-17T03:02:42.815Z,72.31
2022-10-17T03:06:11.360Z,72.49
2022-10-17T03:09:39.682Z,72.61
2022-10-17T03:13:06.487Z,72.65
2022-10-17T03:16:35.481Z,72.81
2022-10-17T03:20:04.575Z,72.90
2022-10-17T03:23:32.193Z,72.78
2022-10-17T03:27:03.301Z,72.81
2022-10-17T03:30:30.712Z,72.77
2022-10-17T03:33:58.592Z,72.76
2022-10-17T03:37:25.442Z,72.92
2022-10-17T03:40:59.303Z,72.96
2022-10-17T03:44:26.767Z,72.84
2022-10-17T03:47:53.726Z,72.85
2022-10-17T03:51:21.146Z,72.67
2022-10-17T03:54:53.256Z,72.64
2022-10-17T03:58:20.259Z,72.67
2022-10-17T04:01:47.358Z,72.85
2022-10-17T04:05:14.716Z,72.92
2022-10-17T04:08:43.015Z,72.72
2022-10-17T04:12:17.269Z,73.12
2022-10-17T04:15:44.544Z,72.88
2022-10-17T04:19:15.132Z,72.94
2022-10-17T04:22:44.937Z,72.97
2022-10-17T04:26:12.695Z,73.13
2022-10-17T04:29:39.480Z,73.32
2022-10-17T04:33:12.387Z,73.08
2022-10-17T04:36:40.175Z,73.04
2022-10-17T04:40:10.135Z,72.95
2022-10-17T04:43:39.291Z,72.74
2022-10-17T04:47:09.638Z,72.78
2022-10-17T04:50:38.576Z,72.64
2022-10-17T04:54:29.683Z,72.87
2022-10-17T04:58:05.536Z,72.82
2022-10-17T05:01:32.589Z,72.74
2022-10-17T05:05:00.168Z,72.77
2022-10-17T05:08:27.054Z,72.85
2022-10-17T05:11:53.546Z,72.74
2022-10-17T05:15:19.908Z,73.07
2022-10-17T05:18:53.577Z,72.98
2022-10-17T05:22:20.660Z,73.09
2022-10-17T05:25:47.198Z,73.10
2022-10-17T05:29:13.988Z,73.23
2022-10-17T05:32:45.027Z,73.26
2022-10-17T05:36:12.089Z,73.30
2022-10-17T05:39:41.452Z,73.27
2022-10-17T05:43:09.657Z,73.14
2022-10-17T05:46:36.631Z,73.11
2022-10-17T05:50:04.523Z,73.09
2022-10-17T05:53:42.898Z,73.20
2022-10-17T05:57:15.024Z,73.29
2022-10-17T06:04:19.128Z,73.36
2022-10-17T06:07:46.041Z,73.39
2022-10-17T06:11:14.707Z,73.56
2022-10-17T06:14:41.096Z,73.59
2022-10-17T06:18:07.755Z,73.76
2022-10-17T06:21:36.918Z,73.62
2022-10-17T06:25:12.615Z,73.59
2022-10-17T06:28:39.784Z,73.79
2022-10-17T06:32:09.850Z,73.78
2022-10-17T06:35:40.540Z,73.76
2022-10-17T06:39:07.452Z,73.57
2022-10-17T06:42:40.348Z,73.88
2022-10-17T06:46:11.742Z,73.60
2022-10-17T06:49:51.295Z,73.64
2022-10-17T06:53:42.536Z,73.58
2022-10-17T06:57:30.195Z,73.80
2022-10-17T07:01:17.875Z,73.89
2022-10-17T07:04:48.138Z,74.07
2022-10-17T07:08:17.370Z,74.18
2022-10-17T07:11:48.181Z,74.36
2022-10-17T07:15:20.867Z,74.32
2022-10-17T07:18:53.330Z,74.61
2022-10-17T07:22:24.034Z,74.77
2022-10-17T07:26:00.647Z,74.84
2022-10-17T07:29:33.026Z,74.88
2022-10-17T07:33:08.999Z,74.97
2022-10-17T07:36:38.394Z,74.95
2022-10-17T07:40:11.292Z,75.06
2022-10-17T07:43:43.588Z,74.96
2022-10-17T07:47:10.394Z,75.09
2022-10-17T07:50:38.404Z,74.98
2022-10-17T07:54:06.269Z,74.96
2022-10-17T07:57:32.979Z,74.96
2022-10-17T08:01:04.085Z,74.92
2022-10-17T08:04:31.161Z,74.97
2022-10-17T08:07:58.016Z,74.94
2022-10-17T08:11:25.644Z,74.94
2022-10-17T08:14:52.414Z,74.86
2022-10-17T08:18:22.607Z,74.98
2022-10-17T08:21:50.583Z,74.85
2022-10-17T08:25:18.844Z,74.95
2022-10-17T08:28:48.538Z,74.89
2022-10-17T08:32:15.935Z,74.96
2022-10-17T08:35:42.365Z,74.98
2022-10-17T08:39:09.337Z,75.00
2022-10-17T08:42:52.869Z,75.05
2022-10-17T08:46:22.096Z,75.20
2022-10-17T08:49:53.826Z,75.22
2022-10-17T08:53:24.890Z,75.30
2022-10-17T08:56:54.841Z,75.19
2022-10-17T09:00:23.509Z,75.25
2022-10-17T09:04:03.308Z,75.30
2022-10-17T09:07:37.434Z,75.15
2022-10-17T09:11:12.200Z,75.24
2022-10-17T09:14:56.270Z,75.24
2022-10-17T09:18:28.933Z,75.03
2022-10-17T09:21:59.849Z,75.17
2022-10-17T09:25:27.722Z,75.02
2022-10-17T09:29:01.736Z,74.86
2022-10-17T09:32:30.997Z,74.96
2022-10-17T09:36:07.994Z,74.81
2022-10-17T09:39:35.646Z,74.75
2022-10-17T09:43:07.436Z,74.70
2022-10-17T09:46:38.561Z,74.72
2022-10-17T09:50:10.588Z,74.57
2022-10-17T09:53:43.257Z,74.43
2022-10-17T09:57:12.411Z,74.41
2022-10-17T10:00:42.412Z,74.44
2022-10-17T10:04:14.521Z,74.40
2022-10-17T10:07:41.977Z,74.08
2022-10-17T10:11:14.157Z,74.00
2022-10-17T10:14:45.172Z,73.93
2022-10-17T10:18:37.342Z,73.84
2022-10-17T10:22:07.859Z,73.82
2022-10-17T10:25:36.482Z,73.83
2022-10-17T10:29:07.052Z,73.75
2022-10-17T10:32:37.188Z,73.49
2022-10-17T10:36:07.990Z,73.44
2022-10-17T10:39:40.335Z,73.30
2022-10-17T10:43:23.505Z,73.04
2022-10-17T10:46:50.043Z,72.78
2022-10-17T10:50:29.353Z,72.58
2022-10-17T10:54:03.162Z,72.48
2022-10-17T10:57:34.977Z,72.25
2022-10-17T11:01:13.758Z,71.93
2022-10-17T11:04:47.361Z,71.73
2022-10-17T11:08:22.249Z,71.72
2022-10-17T11:11:55.144Z,71.72
2022-10-17T11:15:26.703Z,71.46
2022-10-17T11:18:58.214Z,71.08
2022-10-17T11:22:36.558Z,70.96
2022-10-17T11:26:08.803Z,70.83
2022-10-17T11:29:38.523Z,70.74
2022-10-17T11:33:07.529Z,70.51
2022-10-17T11:36:38.218Z,70.26
2022-10-17T11:40:14.486Z,70.14
2022-10-17T11:43:47.645Z,69.75
2022-10-17T11:47:24.480Z,69.52
2022-10-17T11:54:48.935Z,68.86
2022-10-17T11:58:30.108Z,68.56
2022-10-17T12:02:03.276Z,68.27
2022-10-17T12:05:41.179Z,68.12
2022-10-17T12:09:17.502Z,67.81
2022-10-17T12:12:44.153Z,67.86
2022-10-17T12:20:33.402Z,67.32
2022-10-17T12:24:00.205Z,66.94
2022-10-17T12:27:40.255Z,66.95
2022-10-17T12:31:12.788Z,66.65
2022-10-17T12:34:40.277Z,66.38
2022-10-17T12:38:29.772Z,65.88
2022-10-17T12:41:59.296Z,65.37
2022-10-17T12:45:51.807Z,65.42
2022-10-17T12:49:40.737Z,65.27
2022-10-17T12:53:18.537Z,65.24
2022-10-17T12:56:48.829Z,65.12
2022-10-17T13:00:22.373Z,64.93
2022-10-17T13:03:49.107Z,64.75
2022-10-17T13:07:21.484Z,64.81
2022-10-17T13:10:52.849Z,64.71
2022-10-17T13:14:25.822Z,64.54
2022-10-17T13:18:03.457Z,64.45
2022-10-17T13:21:32.654Z,64.24
2022-10-17T13:25:10.868Z,64.25
2022-10-17T13:28:39.483Z,64.19
2022-10-17T13:32:08.321Z,64.02
2022-10-17T13:39:52.383Z,63.72
2022-10-17T13:43:21.355Z,63.59
2022-10-17T13:46:49.941Z,63.28
2022-10-17T13:50:43.760Z,63.32
2022-10-17T13:54:35.708Z,63.10
2022-10-17T13:58:18.118Z,62.98
2022-10-17T14:01:48.400Z,62.86
2022-10-17T14:05:19.203Z,62.61
2022-10-17T14:09:01.153Z,62.64
2022-10-17T14:12:28.794Z,62.51
2022-10-17T14:15:58.133Z,62.48
2022-10-17T14:19:29.078Z,62.32
2022-10-17T14:23:17.906Z,62.48
2022-10-17T14:26:52.152Z,62.49
2022-10-17T14:30:57.062Z,62.46
2022-10-17T14:34:31.524Z,62.50
2022-10-17T14:38:03.585Z,62.62
2022-10-17T14:41:43.025Z,62.41
2022-10-17T14:45:18.171Z,62.49
2022-10-17T14:48:54.529Z,62.55
2022-10-17T14:52:34.020Z,62.61
2022-10-17T14:56:02.373Z,62.72
2022-10-17T14:59:52.664Z,62.61
2022-10-17T15:03:19.521Z,62.80
2022-10-17T15:06:46.562Z,62.91
2022-10-17T15:10:33.824Z,62.98
2022-10-17T15:14:00.125Z,63.01
2022-10-17T15:17:28.896Z,62.94
2022-10-17T15:21:05.010Z,62.98
2022-10-17T15:24:33.494Z,63.05
2022-10-17T15:28:02.472Z,62.94
2022-10-17T15:31:31.466Z,63.13
2022-10-17T15:34:58.469Z,63.21
2022-10-17T15:38:26.635Z,63.34
2022-10-17T15:41:53.161Z,63.35
2022-10-17T15:45:22.782Z,63.39
2022-10-17T15:48:51.480Z,63.48
2022-10-17T15:52:18.093Z,63.65
2022-10-17T15:55:46.299Z,63.68
2022-10-17T15:59:18.209Z,63.67
2022-10-17T16:02:45.236Z,63.77
2022-10-17T16:06:14.373Z,63.76
2022-10-17T16:09:42.408Z,63.83
2022-10-17T16:13:17.595Z,63.93
2022-10-17T16:16:44.878Z,63.96
2022-10-17T16:20:17.002Z,64.00
2022-10-17T16:23:44.448Z,64.17
2022-10-17T16:27:14.233Z,64.22
2022-10-17T16:30:47.620Z,64.41
2022-10-17T16:34:18.417Z,64.63
2022-10-17T16:37:49.181Z,64.70
2022-10-17T16:41:25.600Z,64.86
2022-10-17T16:44:54.563Z,64.91
2022-10-17T16:48:30.566Z,65.05
2022-10-17T16:52:03.642Z,65.20
2022-10-17T16:55:39.997Z,65.24
2022-10-17T16:59:12.625Z,65.41
2022-10-17T17:02:45.576Z,65.44
2022-10-17T17:06:17.074Z,65.51
2022-10-17T17:09:46.118Z,65.57
2022-10-17T17:13:24.095Z,65.55
2022-10-17T17:17:00.425Z,65.57
2022-10-17T17:20:32.864Z,65.70
2022-10-17T17:24:14.897Z,65.84
2022-10-17T17:27:53.009Z,65.86
2022-10-17T17:31:36.466Z,65.90
2022-10-17T17:35:05.906Z,66.04
2022-10-17T17:38:34.476Z,66.12
2022-10-17T17:42:01.610Z,66.12
2022-10-17T17:45:30.359Z,66.21
2022-10-17T17:48:58.168Z,66.30
2022-10-17T17:52:25.351Z,66.41
2022-10-17T17:56:02.932Z,66.25
2022-10-17T17:59:33.984Z,66.27
2022-10-17T18:03:04.310Z,66.26
2022-10-17T18:06:35.376Z,66.36
2022-10-17T18:10:05.152Z,66.40
2022-10-17T18:13:37.263Z,66.34
2022-10-17T18:17:04.051Z,66.43
2022-10-17T18:20:37.044Z,66.47
2022-10-17T18:24:05.749Z,66.52
2022-10-17T18:27:32.562Z,66.42
2022-10-17T18:31:05.279Z,66.69
2022-10-17T18:34:32.474Z,66.79
2022-10-17T18:38:01.023Z,66.81
2022-10-17T18:41:29.480Z,66.83
2022-10-17T18:44:56.405Z,66.88
2022-10-17T18:48:24.483Z,66.93
2022-10-17T18:51:51.336Z,67.06
2022-10-17T18:55:22.616Z,66.89
2022-10-17T18:58:49.978Z,66.90
2022-10-17T19:02:17.036Z,66.98
2022-10-17T19:05:45.520Z,67.02
2022-10-17T19:09:15.313Z,66.85
2022-10-17T19:12:45.549Z,66.98
2022-10-17T19:16:19.602Z,67.01
2022-10-17T19:19:51.043Z,67.06
2022-10-17T19:23:18.488Z,67.24
2022-10-17T19:26:47.190Z,67.34
2022-10-17T19:30:17.128Z,67.35
2022-10-17T19:33:49.699Z,67.55
2022-10-17T19:37:18.562Z,67.59
2022-10-17T19:40:45.645Z,67.63
2022-10-17T19:44:14.262Z,67.67
2022-10-17T19:47:41.083Z,67.82
2022-10-17T19:51:19.099Z,67.88
2022-10-17T19:54:51.975Z,67.89
2022-10-17T19:58:23.574Z,67.74
2022-10-17T20:01:51.781Z,67.86
2022-10-17T20:05:20.192Z,67.92
2022-10-17T20:08:49.406Z,68.01
2022-10-17T20:12:16.690Z,68.16
2022-10-17T20:15:55.842Z,68.19
2022-10-17T20:19:29.311Z,68.30
2022-10-17T20:22:58.513Z,68.45
2022-10-17T20:26:39.056Z,68.54
2022-10-17T20:30:13.014Z,68.59
2022-10-17T20:33:43.633Z,68.66
2022-10-17T20:37:11.753Z,68.69
2022-10-17T20:40:42.573Z,68.73
2022-10-17T20:44:13.604Z,68.83
2022-10-17T20:47:47.176Z,68.89
2022-10-17T20:51:16.823Z,68.90
2022-10-17T20:54:44.549Z,68.83
2022-10-17T20:58:12.989Z,68.75
2022-10-17T21:01:39.620Z,68.93
2022-10-17T21:05:10.401Z,68.84
2022-10-17T21:08:37.699Z,68.79
2022-10-17T21:12:05.572Z,68.71
2022-10-17T21:15:35.662Z,68.65
2022-10-17T21:19:03.742Z,68.72
2022-10-17T21:22:34.245Z,68.54
2022-10-17T21:26:07.239Z,68.70
2022-10-17T21:29:33.746Z,68.84
2022-10-17T21:33:00.670Z,68.97
2022-10-17T21:36:29.957Z,69.11
2022-10-17T21:39:56.555Z,69.17
2022-10-17T21:43:24.733Z,69.34
2022-10-17T21:47:14.417Z,69.34
2022-10-17T21:50:48.385Z,69.33
2022-10-17T21:54:18.966Z,69.34
2022-10-17T21:57:45.776Z,69.43
2022-10-17T22:01:16.190Z,69.42
2022-10-17T22:04:54.352Z,69.51
2022-10-17T22:08:21.311Z,69.56
2022-10-17T22:11:54.469Z,69.46
2022-10-17T22:15:21.977Z,69.53
2022-10-17T22:18:51.345Z,69.38
2022-10-17T22:22:18.587Z,69.47
2022-10-17T22:25:54.620Z,69.50
2022-10-17T22:29:22.367Z,69.40
2022-10-17T22:32:48.971Z,69.38
2022-10-17T22:36:16.356Z,69.38
2022-10-17T22:39:43.738Z,69.43
2022-10-17T22:43:10.359Z,69.53
2022-10-17T22:46:37.204Z,69.51
2022-10-17T22:50:04.696Z,69.56
2022-10-17T22:53:31.858Z,69.60
2022-10-17T22:56:58.667Z,69.67
2022-10-17T23:00:25.766Z,69.55
2022-10-17T23:03:53.542Z,69.70
2022-10-17T23:07:22.813Z,69.75
2022-10-17T23:10:50.155Z,69.78
2022-10-17T23:14:17.575Z,69.82
2022-10-17T23:17:44.321Z,69.80
2022-10-17T23:21:11.951Z,69.79
2022-10-17T23:24:39.509Z,69.72
2022-10-17T23:28:09.577Z,69.75
2022-10-17T23:31:36.129Z,69.57
2022-10-17T23:35:02.828Z,69.55
2022-10-17T23:38:30.182Z,69.60
2022-10-17T23:41:56.747Z,69.67
2022-10-17T23:45:23.754Z,69.74
2022-10-17T23:48:50.379Z,69.79
2022-10-17T23:52:17.497Z,69.79
2022-10-17T23:55:44.391Z,69.92
2022-10-17T23:59:11.447Z,69.87
